Time;durP1;ratioP1;P1;durP2;ratioP2;P2;SDS_P1;SDS_P2;PMS_P1;PMS_P2;Temp;Humidity;BMP_temperature;BMP_pressure;BME280_temperature;BME280_humidity;BME280_pressure;Samples;Min_cycle;Max_cycle;Signal;HPM_P1;HPM_P2
2023/05/02 00:01:39;;;;;;;;;;;21.70;39.10;;;;;;8398561;28;19921;-44
2023/05/02 00:05:41;;;;;;;;;;;21.70;39.10;;;;;;8398909;28;19940;-44
2023/05/02 00:09:41;;;;;;;;;;;21.70;39.10;;;;;;8397789;28;19931;-43
2023/05/02 00:13:42;;;;;;;;;;;21.70;39.10;;;;;;8398709;28;20377;-44
2023/05/02 00:17:43;;;;;;;;;;;21.60;39.10;;;;;;8398249;28;19944;-43
2023/05/02 00:21:46;;;;;;;;;;;21.60;39.10;;;;;;8397384;28;19917;-43
2023/05/02 00:25:46;;;;;;;;;;;21.60;39.10;;;;;;8397888;28;20369;-43
2023/05/02 00:29:47;;;;;;;;;;;21.60;39.10;;;;;;8397770;28;19970;-42
2023/05/02 00:33:47;;;;;;;;;;;21.60;39.10;;;;;;8396790;28;20381;-43
2023/05/02 00:37:48;;;;;;;;;;;21.60;39.10;;;;;;8397330;28;19916;-43
2023/05/02 00:41:48;;;;;;;;;;;21.60;39.10;;;;;;8397353;28;19916;-45
2023/05/02 00:45:49;;;;;;;;;;;21.60;39.20;;;;;;8396866;28;19965;-42
2023/05/02 00:49:49;;;;;;;;;;;21.60;39.20;;;;;;8396111;28;20382;-43
2023/05/02 00:53:49;;;;;;;;;;;21.50;39.10;;;;;;8397058;28;19926;-42
2023/05/02 00:57:51;;;;;;;;;;;21.50;39.10;;;;;;8395823;28;20370;-43
2023/05/02 01:02:04;;;;;;;;;;;21.50;39.10;;;;;;8396755;28;19960;-43
2023/05/02 01:06:16;;;;;;;;;;;21.50;39.20;;;;;;8368709;28;20378;-43
2023/05/02 01:10:31;;;;;;;;;;;21.50;39.20;;;;;;8395412;28;20404;-44
2023/05/02 01:14:37;;;;;;;;;;;21.50;39.20;;;;;;8396101;28;19917;-43
2023/05/02 01:18:39;;;;;;;;;;;21.50;39.20;;;;;;8395786;28;20357;-42
2023/05/02 01:22:40;;;;;;;;;;;21.40;39.20;;;;;;8395929;28;19919;-42
2023/05/02 01:26:40;;;;;;;;;;;21.50;39.20;;;;;;8396081;28;19917;-43
2023/05/02 01:30:42;;;;;;;;;;;21.50;39.80;;;;;;8395567;28;19937;-42
2023/05/02 01:34:44;;;;;;;;;;;21.40;39.20;;;;;;8395730;28;20035;-43
2023/05/02 01:38:45;;;;;;;;;;;21.50;39.40;;;;;;8395945;28;20345;-43
2023/05/02 01:42:47;;;;;;;;;;;21.40;39.20;;;;;;8395140;28;20304;-44
2023/05/02 01:46:48;;;;;;;;;;;21.40;39.20;;;;;;8395757;28;19913;-44
2023/05/02 01:50:50;;;;;;;;;;;21.40;39.20;;;;;;8395627;28;19924;-43
2023/05/02 01:54:50;;;;;;;;;;;21.40;39.20;;;;;;8393676;28;19917;-43
2023/05/02 01:58:52;;;;;;;;;;;21.40;39.20;;;;;;8395686;28;19923;-43
2023/05/02 02:02:54;;;;;;;;;;;21.40;39.30;;;;;;8395240;28;19921;-43
2023/05/02 02:06:56;;;;;;;;;;;21.30;39.20;;;;;;8394700;28;19966;-43
2023/05/02 02:10:59;;;;;;;;;;;21.30;39.20;;;;;;8395479;28;19965;-44
2023/05/02 02:15:02;;;;;;;;;;;21.30;39.20;;;;;;8395081;28;19947;-44
2023/05/02 02:19:04;;;;;;;;;;;21.40;39.20;;;;;;8394608;28;19916;-44
2023/05/02 02:23:06;;;;;;;;;;;21.30;39.20;;;;;;8394793;28;19917;-43
2023/05/02 02:27:06;;;;;;;;;;;21.30;39.30;;;;;;8394952;28;20293;-43
2023/05/02 02:31:07;;;;;;;;;;;21.30;39.20;;;;;;8394276;28;19927;-44
2023/05/02 02:35:08;;;;;;;;;;;21.30;39.30;;;;;;8394754;28;19916;-43
2023/05/02 02:39:11;;;;;;;;;;;21.30;39.30;;;;;;8394865;28;19924;-43
2023/05/02 02:43:32;;;;;;;;;;;21.30;39.30;;;;;;8394326;28;19925;-44
2023/05/02 02:47:40;;;;;;;;;;;21.30;39.30;;;;;;8395488;28;19920;-45
2023/05/02 02:51:45;;;;;;;;;;;21.30;39.30;;;;;;8394226;28;20001;-44
2023/05/02 02:55:54;;;;;;;;;;;21.30;39.30;;;;;;8394646;28;20481;-44
2023/05/02 02:59:55;;;;;;;;;;;21.20;39.30;;;;;;8394610;28;19916;-43
2023/05/02 03:03:56;;;;;;;;;;;21.20;39.30;;;;;;8393756;28;20293;-43
2023/05/02 03:07:57;;;;;;;;;;;21.20;39.30;;;;;;8394277;28;19916;-43
2023/05/02 03:11:58;;;;;;;;;;;21.20;39.30;;;;;;8395657;28;19928;-43
2023/05/02 03:16:15;;;;;;;;;;;21.20;39.30;;;;;;8399420;28;19991;-44
2023/05/02 03:20:15;;;;;;;;;;;21.20;39.40;;;;;;8399814;28;19921;-43
2023/05/02 03:24:16;;;;;;;;;;;21.20;39.30;;;;;;8398411;28;20590;-42
2023/05/02 03:28:16;;;;;;;;;;;21.20;39.30;;;;;;8399139;28;20011;-43
2023/05/02 03:32:17;;;;;;;;;;;21.20;39.30;;;;;;8399517;28;19919;-44
2023/05/02 03:36:17;;;;;;;;;;;21.20;39.40;;;;;;8399485;28;19924;-44
2023/05/02 03:40:20;;;;;;;;;;;21.20;39.30;;;;;;8398627;28;20278;-43
2023/05/02 03:44:20;;;;;;;;;;;21.20;39.30;;;;;;8399449;28;20384;-44
2023/05/02 03:48:21;;;;;;;;;;;21.20;39.30;;;;;;8398561;28;19924;-42
2023/05/02 03:52:22;;;;;;;;;;;21.30;39.30;;;;;;8399131;28;19913;-44
2023/05/02 03:56:23;;;;;;;;;;;21.20;39.20;;;;;;8398663;28;19916;-43
2023/05/02 04:00:23;;;;;;;;;;;21.20;39.20;;;;;;8398102;28;20324;-43
2023/05/02 04:04:23;;;;;;;;;;;21.30;39.20;;;;;;8397728;28;20396;-42
2023/05/02 04:08:24;;;;;;;;;;;21.30;39.30;;;;;;8398666;28;19924;-42
2023/05/02 04:12:24;;;;;;;;;;;21.20;39.20;;;;;;8397924;28;19944;-42
2023/05/02 04:16:25;;;;;;;;;;;21.30;39.10;;;;;;8398126;28;20235;-43
2023/05/02 04:20:25;;;;;;;;;;;21.30;39.10;;;;;;8398486;28;20010;-42
2023/05/02 04:24:26;;;;;;;;;;;21.40;39.00;;;;;;8396401;28;19924;-43
2023/05/02 04:28:26;;;;;;;;;;;21.50;39.00;;;;;;8397560;28;19928;-43
2023/05/02 04:32:27;;;;;;;;;;;21.50;38.90;;;;;;8397675;28;19974;-43
2023/05/02 04:36:27;;;;;;;;;;;21.60;38.90;;;;;;8396906;28;19923;-43
2023/05/02 04:40:28;;;;;;;;;;;21.60;38.80;;;;;;8397743;28;19920;-44
2023/05/02 04:44:28;;;;;;;;;;;21.60;38.80;;;;;;8397462;28;20511;-43
2023/05/02 04:48:29;;;;;;;;;;;21.70;38.80;;;;;;8396578;28;19928;-44
2023/05/02 04:52:29;;;;;;;;;;;21.70;38.80;;;;;;8397110;28;20384;-44
2023/05/02 04:56:30;;;;;;;;;;;21.70;38.90;;;;;;8397034;28;19923;-43
2023/05/02 05:00:30;;;;;;;;;;;21.70;38.80;;;;;;8396068;28;19917;-44
2023/05/02 05:04:30;;;;;;;;;;;21.70;38.80;;;;;;8396448;28;19927;-43
2023/05/02 05:08:31;;;;;;;;;;;21.70;38.80;;;;;;8396469;28;19921;-44
2023/05/02 05:12:32;;;;;;;;;;;21.70;38.80;;;;;;8396275;28;20314;-44
2023/05/02 05:16:32;;;;;;;;;;;21.70;38.90;;;;;;8396349;28;19916;-43
2023/05/02 05:20:33;;;;;;;;;;;21.60;38.80;;;;;;8396381;28;19917;-45
2023/05/02 05:24:33;;;;;;;;;;;21.70;38.80;;;;;;8395560;28;19912;-44
2023/05/02 05:28:34;;;;;;;;;;;21.60;38.80;;;;;;8395925;28;19921;-44
2023/05/02 05:32:34;;;;;;;;;;;21.70;38.80;;;;;;8396364;28;19999;-43
2023/05/02 05:36:36;;;;;;;;;;;21.60;38.80;;;;;;8395035;28;19917;-43
2023/05/02 05:40:36;;;;;;;;;;;21.60;38.90;;;;;;8395621;28;19917;-44
2023/05/02 05:44:37;;;;;;;;;;;21.60;38.90;;;;;;8395680;28;20353;-43
2023/05/02 05:48:37;;;;;;;;;;;21.60;39.00;;;;;;8394950;28;20301;-43
2023/05/02 05:52:38;;;;;;;;;;;21.60;39.10;;;;;;8396024;28;19912;-44
2023/05/02 05:56:38;;;;;;;;;;;21.60;39.10;;;;;;8395202;28;19917;-44
2023/05/02 06:00:39;;;;;;;;;;;21.60;39.20;;;;;;8394769;28;19932;-43
2023/05/02 06:04:39;;;;;;;;;;;21.50;39.20;;;;;;8395304;28;19920;-44
2023/05/02 06:08:40;;;;;;;;;;;21.50;39.20;;;;;;8395026;28;19933;-43
2023/05/02 06:12:40;;;;;;;;;;;21.50;39.20;;;;;;8395024;28;20281;-45
2023/05/02 06:16:41;;;;;;;;;;;21.60;39.20;;;;;;8395294;28;20011;-44
2023/05/02 06:20:41;;;;;;;;;;;21.60;39.30;;;;;;8395107;28;19952;-44
2023/05/02 06:24:42;;;;;;;;;;;21.60;39.20;;;;;;8394370;28;19923;-43
2023/05/02 06:28:43;;;;;;;;;;;21.60;39.20;;;;;;8394890;28;19959;-45
2023/05/02 06:32:43;;;;;;;;;;;21.60;39.20;;;;;;8395185;28;20400;-44
2023/05/02 06:36:44;;;;;;;;;;;21.60;39.10;;;;;;8394139;28;19923;-44
2023/05/02 06:40:44;;;;;;;;;;;21.70;39.10;;;;;;8394580;28;19940;-43
2023/05/02 06:44:45;;;;;;;;;;;21.60;39.00;;;;;;8394503;28;19920;-45
2023/05/02 06:48:45;;;;;;;;;;;21.70;39.00;;;;;;8398280;28;20388;-43
2023/05/02 06:52:45;;;;;;;;;;;21.70;39.00;;;;;;8401098;28;19938;-42
2023/05/02 06:56:46;;;;;;;;;;;21.70;38.80;;;;;;8400367;28;19973;-44
2023/05/02 07:00:48;;;;;;;;;;;21.70;38.90;;;;;;8399956;28;20328;-43
2023/05/02 07:04:48;;;;;;;;;;;21.70;39.50;;;;;;8391435;28;19982;-43
2023/05/02 07:08:49;;;;;;;;;;;21.80;39.00;;;;;;8367751;28;20382;-43
2023/05/02 07:12:49;;;;;;;;;;;21.80;39.00;;;;;;8399814;28;19912;-44
2023/05/02 07:16:50;;;;;;;;;;;21.80;39.00;;;;;;8399854;28;19916;-43
2023/05/02 07:20:50;;;;;;;;;;;21.80;38.90;;;;;;8400045;28;19923;-44
2023/05/02 07:25:00;;;;;;;;;;;21.80;38.90;;;;;;8399116;28;20301;-44
2023/05/02 07:29:01;;;;;;;;;;;21.80;38.90;;;;;;8399858;28;19921;-44
2023/05/02 07:33:01;;;;;;;;;;;21.90;38.90;;;;;;8399665;28;19913;-43
2023/05/02 07:37:02;;;;;;;;;;;21.90;38.80;;;;;;8398766;28;19921;-43
2023/05/02 07:41:02;;;;;;;;;;;21.90;38.90;;;;;;8399488;28;19971;-44
2023/05/02 07:45:03;;;;;;;;;;;21.90;38.90;;;;;;8399332;28;19924;-44
2023/05/02 07:49:03;;;;;;;;;;;21.80;38.90;;;;;;8398275;28;20369;-43
2023/05/02 07:53:03;;;;;;;;;;;21.90;38.90;;;;;;8399426;28;19919;-44
2023/05/02 07:57:07;;;;;;;;;;;21.80;38.90;;;;;;8398578;28;20035;-44
2023/05/02 08:01:07;;;;;;;;;;;21.80;38.90;;;;;;8398229;28;20000;-43
2023/05/02 08:05:08;;;;;;;;;;;21.80;38.90;;;;;;8398558;28;19924;-43
2023/05/02 08:09:08;;;;;;;;;;;21.90;38.90;;;;;;8398334;28;19930;-42
2023/05/02 08:13:08;;;;;;;;;;;21.80;38.90;;;;;;8398057;28;19947;-45
2023/05/02 08:17:09;;;;;;;;;;;21.80;38.90;;;;;;8398163;28;20278;-44
2023/05/02 08:21:09;;;;;;;;;;;21.80;38.90;;;;;;8397878;28;19924;-44
2023/05/02 08:25:10;;;;;;;;;;;21.90;38.90;;;;;;8397839;28;20362;-43
2023/05/02 08:29:11;;;;;;;;;;;21.80;38.90;;;;;;8397718;28;19924;-42
2023/05/02 08:33:11;;;;;;;;;;;21.80;38.90;;;;;;8397577;28;19998;-43
2023/05/02 08:37:12;;;;;;;;;;;21.80;38.90;;;;;;8397047;28;19944;-43
2023/05/02 08:41:16;;;;;;;;;;;21.80;38.90;;;;;;8397395;28;20393;-43
2023/05/02 08:45:17;;;;;;;;;;;21.90;38.90;;;;;;8397341;28;19924;-44
2023/05/02 08:49:18;;;;;;;;;;;21.90;38.90;;;;;;8396770;28;19921;-43
2023/05/02 08:53:20;;;;;;;;;;;21.90;38.80;;;;;;8397210;28;19923;-43
2023/05/02 08:57:20;;;;;;;;;;;21.90;38.80;;;;;;8396599;28;19917;-42
2023/05/02 09:01:26;;;;;;;;;;;22.00;38.90;;;;;;8396695;28;19920;-43
2023/05/02 09:05:28;;;;;;;;;;;22.00;38.80;;;;;;8396801;28;19990;-43
2023/05/02 09:09:30;;;;;;;;;;;22.00;38.80;;;;;;8395439;28;19921;-42
2023/05/02 09:13:37;;;;;;;;;;;22.00;38.80;;;;;;8396612;28;19917;-43
2023/05/02 09:17:41;;;;;;;;;;;22.00;38.70;;;;;;8396524;28;19923;-43
2023/05/02 09:21:42;;;;;;;;;;;22.00;38.70;;;;;;8395689;28;20015;-43
2023/05/02 09:25:42;;;;;;;;;;;22.00;38.70;;;;;;8396226;28;20452;-44
2023/05/02 09:29:44;;;;;;;;;;;22.00;38.70;;;;;;8396061;28;20441;-43
2023/05/02 09:33:45;;;;;;;;;;;22.00;38.70;;;;;;8395417;28;19919;-43
2023/05/02 09:37:45;;;;;;;;;;;22.00;38.70;;;;;;8395754;28;20381;-43
2023/05/02 09:41:47;;;;;;;;;;;22.00;38.80;;;;;;8394671;28;20384;-44
2023/05/02 09:46:00;;;;;;;;;;;22.00;38.80;;;;;;8394982;28;20396;-43
2023/05/02 09:50:02;;;;;;;;;;;22.00;38.80;;;;;;8395480;28;19920;-43
2023/05/02 09:54:03;;;;;;;;;;;22.00;38.80;;;;;;8395738;28;19917;-43
2023/05/02 09:58:04;;;;;;;;;;;22.00;38.80;;;;;;8395080;28;20399;-43
2023/05/02 10:02:06;;;;;;;;;;;22.00;38.80;;;;;;8395665;28;19952;-44
2023/05/02 10:06:07;;;;;;;;;;;22.00;38.80;;;;;;8377469;28;19920;-43
2023/05/02 10:10:12;;;;;;;;;;;21.90;38.80;;;;;;8394626;28;19921;-42
2023/05/02 10:14:15;;;;;;;;;;;21.90;38.80;;;;;;8395451;28;20052;-43
2023/05/02 10:18:26;;;;;;;;;;;21.90;38.80;;;;;;8395115;28;19917;-43
2023/05/02 10:22:27;;;;;;;;;;;21.90;38.90;;;;;;8399189;28;20007;-42
2023/05/02 10:26:28;;;;;;;;;;;21.90;38.90;;;;;;8401671;28;19916;-44
2023/05/02 10:30:28;;;;;;;;;;;21.90;38.90;;;;;;8401144;28;19925;-45
2023/05/02 10:34:30;;;;;;;;;;;21.90;38.90;;;;;;8401324;28;19919;-43
2023/05/02 10:38:31;;;;;;;;;;;21.90;38.90;;;;;;8401243;28;19916;-43
2023/05/02 10:42:36;;;;;;;;;;;21.90;38.90;;;;;;8400671;28;20293;-44
2023/05/02 10:46:39;;;;;;;;;;;21.90;38.90;;;;;;8400916;28;20019;-43
2023/05/02 10:50:46;;;;;;;;;;;21.90;39.00;;;;;;8400941;28;19925;-44
2023/05/02 10:54:46;;;;;;;;;;;21.80;39.00;;;;;;8400303;28;19917;-45
2023/05/02 10:58:47;;;;;;;;;;;21.80;39.00;;;;;;8400716;28;19920;-43
2023/05/02 11:02:48;;;;;;;;;;;21.90;39.00;;;;;;8400510;28;20361;-44
2023/05/02 11:06:58;;;;;;;;;;;21.90;39.00;;;;;;8400040;28;19917;-46
2023/05/02 11:11:18;;;;;;;;;;;21.90;39.00;;;;;;8400496;28;19931;-44
2023/05/02 11:15:21;;;;;;;;;;;21.80;39.00;;;;;;8400355;28;20400;-45
2023/05/02 11:19:22;;;;;;;;;;;21.90;39.00;;;;;;8400426;28;20275;-44
2023/05/02 11:23:25;;;;;;;;;;;21.90;39.00;;;;;;8399872;28;20003;-44
2023/05/02 11:27:32;;;;;;;;;;;21.90;38.90;;;;;;8399387;28;19977;-43
2023/05/02 11:31:33;;;;;;;;;;;21.90;38.90;;;;;;8399693;28;19924;-44
2023/05/02 11:35:34;;;;;;;;;;;21.90;38.90;;;;;;8399086;28;19912;-46
2023/05/02 11:39:35;;;;;;;;;;;21.90;38.90;;;;;;8399359;28;19916;-45
2023/05/02 11:43:35;;;;;;;;;;;21.90;38.90;;;;;;8399767;28;19920;-44
2023/05/02 11:47:36;;;;;;;;;;;22.00;38.90;;;;;;8399418;28;19916;-45
2023/05/02 11:51:36;;;;;;;;;;;22.00;38.80;;;;;;8398641;28;20348;-46
2023/05/02 11:55:37;;;;;;;;;;;22.00;38.90;;;;;;8399151;28;19959;-45
2023/05/02 11:59:54;;;;;;;;;;;22.00;38.90;;;;;;8398918;28;19923;-44
2023/05/02 12:04:04;;;;;;;;;;;22.00;38.80;;;;;;8398461;28;19921;-45
2023/05/02 12:08:04;;;;;;;;;;;22.00;38.80;;;;;;8398872;28;19917;-44
2023/05/02 12:12:05;;;;;;;;;;;22.00;38.80;;;;;;8398284;28;19931;-44
2023/05/02 12:16:06;;;;;;;;;;;22.10;38.80;;;;;;8397814;28;19925;-44
2023/05/02 12:20:08;;;;;;;;;;;22.10;38.70;;;;;;8398449;28;19939;-44
2023/05/02 12:24:09;;;;;;;;;;;22.10;38.70;;;;;;8398470;28;19924;-44
2023/05/02 12:28:10;;;;;;;;;;;22.10;38.60;;;;;;8397505;28;20301;-44
2023/05/02 12:32:10;;;;;;;;;;;22.20;38.60;;;;;;8397845;28;19921;-43
2023/05/02 12:36:11;;;;;;;;;;;22.20;38.60;;;;;;8397578;28;19958;-44
2023/05/02 12:40:16;;;;;;;;;;;22.20;38.60;;;;;;8397326;28;19920;-43
2023/05/02 12:44:34;;;;;;;;;;;22.20;38.60;;;;;;8396740;28;19927;-44
2023/05/02 12:48:34;;;;;;;;;;;22.10;38.60;;;;;;8396719;28;20015;-44
2023/05/02 12:52:46;;;;;;;;;;;22.20;38.60;;;;;;8397238;28;19986;-44
2023/05/02 12:56:47;;;;;;;;;;;22.20;39.20;;;;;;8396977;28;19924;-44
2023/05/02 13:00:48;;;;;;;;;;;22.20;38.60;;;;;;8396589;28;19913;-45
2023/05/02 13:04:48;;;;;;;;;;;22.20;38.50;;;;;;8396883;28;20381;-43
2023/05/02 13:08:56;;;;;;;;;;;22.20;38.50;;;;;;8362972;27;20012;-42
2023/05/02 13:12:57;;;;;;;;;;;22.20;38.50;;;;;;8339675;28;19917;-43
2023/05/02 13:16:58;;;;;;;;;;;22.20;38.50;;;;;;8356588;28;19917;-43
2023/05/02 13:20:58;;;;;;;;;;;22.20;38.50;;;;;;8357851;28;19920;-43
2023/05/02 13:24:58;;;;;;;;;;;22.20;38.40;;;;;;8357046;28;19963;-43
2023/05/02 13:28:59;;;;;;;;;;;22.20;38.50;;;;;;8357661;28;20397;-43
2023/05/02 13:32:59;;;;;;;;;;;22.20;38.50;;;;;;8357474;28;19924;-44
2023/05/02 13:37:00;;;;;;;;;;;22.30;39.00;;;;;;8356699;28;20011;-44
2023/05/02 13:41:00;;;;;;;;;;;22.30;38.40;;;;;;8357196;28;19967;-44
2023/05/02 13:45:04;;;;;;;;;;;22.30;38.40;;;;;;8356853;28;19917;-44
2023/05/02 13:49:04;;;;;;;;;;;22.30;38.30;;;;;;8356078;28;19917;-44
2023/05/02 13:53:05;;;;;;;;;;;22.30;38.40;;;;;;8356678;28;20359;-44
2023/05/02 13:57:05;;;;;;;;;;;22.30;38.40;;;;;;8356542;28;19921;-44
2023/05/02 14:01:06;;;;;;;;;;;22.30;38.40;;;;;;8356124;28;19912;-44
2023/05/02 14:05:06;;;;;;;;;;;22.30;38.40;;;;;;8358018;28;19917;-44
2023/05/02 14:09:07;;;;;;;;;;;22.40;38.30;;;;;;8389003;28;19924;-44
2023/05/02 14:13:07;;;;;;;;;;;22.40;38.30;;;;;;8388319;28;19916;-43
2023/05/02 14:17:08;;;;;;;;;;;22.40;38.30;;;;;;8384120;28;19917;-43
2023/05/02 14:21:08;;;;;;;;;;;22.40;38.30;;;;;;8367361;28;20293;-43
2023/05/02 14:25:09;;;;;;;;;;;22.40;38.30;;;;;;8366123;28;20328;-45
2023/05/02 14:29:10;;;;;;;;;;;22.30;38.30;;;;;;8366515;28;19920;-43
2023/05/02 14:33:10;;;;;;;;;;;22.30;38.40;;;;;;8366443;28;19927;-44
2023/05/02 14:37:11;;;;;;;;;;;22.30;38.40;;;;;;8365866;28;20003;-42
2023/05/02 14:41:11;;;;;;;;;;;22.30;38.40;;;;;;8366309;28;19913;-44
2023/05/02 14:45:11;;;;;;;;;;;22.30;38.50;;;;;;8365875;28;20128;-44
2023/05/02 14:49:12;;;;;;;;;;;22.30;38.50;;;;;;8365382;28;19921;-47
2023/05/02 14:53:13;;;;;;;;;;;22.20;38.50;;;;;;8365342;28;19928;-43
2023/05/02 14:57:14;;;;;;;;;;;22.20;38.60;;;;;;8365359;28;20007;-45
2023/05/02 15:01:18;;;;;;;;;;;22.20;38.60;;;;;;8364778;28;20277;-45
2023/05/02 15:05:18;;;;;;;;;;;22.20;38.60;;;;;;8364690;28;20358;-44
2023/05/02 15:09:19;;;;;;;;;;;22.20;38.70;;;;;;8364738;28;19920;-45
2023/05/02 15:13:20;;;;;;;;;;;22.20;38.80;;;;;;8364196;28;19982;-43
2023/05/02 15:17:20;;;;;;;;;;;22.20;38.80;;;;;;8364806;28;19940;-43
2023/05/02 15:21:20;;;;;;;;;;;22.20;38.80;;;;;;8364769;28;19967;-45
2023/05/02 15:25:21;;;;;;;;;;;22.30;38.90;;;;;;8364229;28;19948;-43
2023/05/02 15:29:21;;;;;;;;;;;22.30;38.70;;;;;;8363002;28;19927;-44
2023/05/02 15:33:22;;;;;;;;;;;22.40;38.70;;;;;;8363448;28;20263;-45
2023/05/02 15:37:22;;;;;;;;;;;22.40;38.60;;;;;;8363967;28;20428;-44
2023/05/02 15:41:26;;;;;;;;;;;22.50;38.70;;;;;;8363812;28;20393;-44
2023/05/02 15:45:26;;;;;;;;;;;22.50;38.60;;;;;;8362612;28;19975;-43
2023/05/02 15:49:31;;;;;;;;;;;22.40;38.50;;;;;;8363734;28;19917;-46
2023/05/02 15:53:31;;;;;;;;;;;22.50;38.70;;;;;;8364020;28;20011;-44
2023/05/02 15:57:32;;;;;;;;;;;22.50;38.80;;;;;;8363525;28;19920;-44
2023/05/02 16:01:32;;;;;;;;;;;22.50;38.70;;;;;;8363627;28;19913;-45
2023/05/02 16:05:33;;;;;;;;;;;22.50;38.80;;;;;;8363324;28;19967;-46
2023/05/02 16:09:33;;;;;;;;;;;22.50;38.70;;;;;;8349387;28;19932;-44
2023/05/02 16:13:34;;;;;;;;;;;22.50;38.70;;;;;;8363121;28;19984;-46
2023/05/02 16:17:34;;;;;;;;;;;22.50;38.90;;;;;;8363290;28;20281;-45
2023/05/02 16:21:35;;;;;;;;;;;22.50;38.90;;;;;;8362615;28;19916;-44
2023/05/02 16:25:36;;;;;;;;;;;22.50;39.00;;;;;;8362816;28;19925;-44
2023/05/02 16:29:36;;;;;;;;;;;22.40;39.00;;;;;;8362959;28;19924;-44
2023/05/02 16:33:37;;;;;;;;;;;22.50;39.00;;;;;;8362158;28;20378;-45
2023/05/02 16:37:42;;;;;;;;;;;22.50;39.10;;;;;;8361309;28;19912;-43
2023/05/02 16:41:43;;;;;;;;;;;22.50;39.10;;;;;;8362730;28;20386;-44
2023/05/02 16:45:45;;;;;;;;;;;22.50;39.10;;;;;;8362179;28;20336;-45
2023/05/02 16:49:50;;;;;;;;;;;22.50;39.10;;;;;;8362621;28;20004;-45
2023/05/02 16:53:51;;;;;;;;;;;22.40;39.10;;;;;;8362342;28;20333;-43
2023/05/02 16:57:51;;;;;;;;;;;22.40;39.10;;;;;;8361525;28;19967;-43
2023/05/02 17:01:52;;;;;;;;;;;22.40;39.10;;;;;;8361912;28;19932;-43
2023/05/02 17:05:53;;;;;;;;;;;22.40;39.10;;;;;;8362045;28;19947;-44
2023/05/02 17:09:53;;;;;;;;;;;22.50;39.20;;;;;;8361534;28;20007;-43
2023/05/02 17:13:53;;;;;;;;;;;22.40;39.10;;;;;;8361985;28;19916;-44
2023/05/02 17:17:54;;;;;;;;;;;22.40;39.10;;;;;;8362084;28;20006;-44
2023/05/02 17:21:56;;;;;;;;;;;22.40;39.10;;;;;;8361605;28;19928;-44
2023/05/02 17:25:57;;;;;;;;;;;22.40;39.20;;;;;;8361804;28;19925;-43
2023/05/02 17:29:57;;;;;;;;;;;22.40;39.10;;;;;;8361717;28;20389;-43
2023/05/02 17:33:58;;;;;;;;;;;22.40;39.10;;;;;;8361629;28;19917;-43
2023/05/02 17:37:58;;;;;;;;;;;22.40;39.10;;;;;;8361593;28;19956;-43
2023/05/02 17:41:58;;;;;;;;;;;22.40;39.10;;;;;;8361848;28;19916;-44
2023/05/02 17:45:59;;;;;;;;;;;22.30;39.10;;;;;;8360839;28;19925;-44
2023/05/02 17:50:03;;;;;;;;;;;22.30;39.10;;;;;;8361259;28;19970;-44
2023/05/02 17:54:03;;;;;;;;;;;22.30;39.10;;;;;;8364923;28;19952;-44
2023/05/02 17:58:04;;;;;;;;;;;22.30;39.20;;;;;;8367044;28;19917;-43
2023/05/02 18:02:05;;;;;;;;;;;22.30;39.20;;;;;;8367334;28;19912;-44
2023/05/02 18:06:06;;;;;;;;;;;22.30;39.20;;;;;;8367414;28;19934;-44
2023/05/02 18:10:07;;;;;;;;;;;22.30;39.20;;;;;;8366624;28;20344;-43
2023/05/02 18:14:07;;;;;;;;;;;22.30;39.30;;;;;;8367026;28;20003;-44
2023/05/02 18:18:08;;;;;;;;;;;22.30;39.20;;;;;;8367193;28;19912;-45
2023/05/02 18:22:09;;;;;;;;;;;22.30;39.20;;;;;;8366145;28;19916;-43
2023/05/02 18:26:12;;;;;;;;;;;22.30;39.30;;;;;;8366676;28;20382;-42
2023/05/02 18:30:13;;;;;;;;;;;22.30;39.20;;;;;;8367046;28;19932;-43
2023/05/02 18:34:13;;;;;;;;;;;22.30;39.20;;;;;;8365874;28;20008;-42
2023/05/02 18:38:14;;;;;;;;;;;22.30;39.20;;;;;;8366484;28;19913;-43
2023/05/02 18:42:15;;;;;;;;;;;22.30;39.30;;;;;;8365965;28;19986;-43
2023/05/02 18:46:15;;;;;;;;;;;22.30;39.30;;;;;;8365535;28;19925;-44
2023/05/02 18:50:16;;;;;;;;;;;22.30;39.30;;;;;;8366380;28;19923;-43
2023/05/02 18:54:18;;;;;;;;;;;22.30;39.20;;;;;;8365843;28;19924;-43
2023/05/02 18:58:19;;;;;;;;;;;22.30;39.20;;;;;;8365399;28;20374;-43
2023/05/02 19:02:20;;;;;;;;;;;22.30;39.20;;;;;;8365446;28;19923;-43
2023/05/02 19:06:21;;;;;;;;;;;22.20;39.20;;;;;;8365553;28;19958;-45
2023/05/02 19:10:21;;;;;;;;;;;22.20;39.20;;;;;;8362409;28;19970;-43
2023/05/02 19:14:22;;;;;;;;;;;22.20;39.20;;;;;;8339011;28;19917;-43
2023/05/02 19:18:22;;;;;;;;;;;22.20;39.20;;;;;;8364961;28;19912;-43
2023/05/02 19:22:23;;;;;;;;;;;22.20;39.30;;;;;;8365098;28;19921;-43
2023/05/02 19:26:23;;;;;;;;;;;22.20;39.20;;;;;;8364732;28;19925;-43
2023/05/02 19:30:24;;;;;;;;;;;22.20;39.20;;;;;;8364271;28;19916;-46
2023/05/02 19:34:24;;;;;;;;;;;22.20;39.20;;;;;;8364965;28;20416;-44
2023/05/02 19:38:25;;;;;;;;;;;22.20;39.30;;;;;;8363486;28;19958;-43
2023/05/02 19:42:26;;;;;;;;;;;22.20;39.20;;;;;;8364028;28;19917;-44
2023/05/02 19:46:28;;;;;;;;;;;22.20;39.30;;;;;;8364080;28;20449;-44
2023/05/02 19:50:29;;;;;;;;;;;22.20;39.30;;;;;;8364141;28;19916;-44
2023/05/02 19:54:29;;;;;;;;;;;22.10;39.30;;;;;;8363554;28;19917;-44
2023/05/02 19:58:30;;;;;;;;;;;22.10;39.20;;;;;;8364279;28;19913;-43
2023/05/02 20:02:32;;;;;;;;;;;22.10;39.30;;;;;;8363797;28;19959;-42
2023/05/02 20:06:32;;;;;;;;;;;22.10;39.20;;;;;;8363083;28;19925;-43
2023/05/02 20:10:34;;;;;;;;;;;22.10;39.20;;;;;;8363591;28;19999;-42
2023/05/02 20:14:34;;;;;;;;;;;22.10;39.30;;;;;;8363280;28;20377;-43
2023/05/02 20:18:35;;;;;;;;;;;22.10;39.20;;;;;;8362849;28;19952;-43
2023/05/02 20:22:35;;;;;;;;;;;22.10;39.20;;;;;;8363077;28;19924;-43
2023/05/02 20:26:36;;;;;;;;;;;22.10;39.20;;;;;;8363197;28;20397;-44
2023/05/02 20:30:38;;;;;;;;;;;22.10;39.20;;;;;;8362460;28;19917;-43
2023/05/02 20:34:39;;;;;;;;;;;22.10;39.20;;;;;;8362763;28;19923;-42
2023/05/02 20:38:41;;;;;;;;;;;22.10;39.20;;;;;;8363207;28;19913;-42
2023/05/02 20:42:42;;;;;;;;;;;22.10;39.20;;;;;;8362033;28;19936;-44
2023/05/02 20:46:43;;;;;;;;;;;22.10;39.10;;;;;;8363075;28;19925;-43
2023/05/02 20:50:53;;;;;;;;;;;22.10;39.10;;;;;;8362437;28;19920;-43
2023/05/02 20:54:54;;;;;;;;;;;22.10;39.10;;;;;;8362512;28;19920;-43
2023/05/02 20:58:55;;;;;;;;;;;22.10;39.10;;;;;;8362476;28;19920;-43
2023/05/02 21:02:55;;;;;;;;;;;22.00;39.00;;;;;;8362443;28;20097;-43
2023/05/02 21:06:56;;;;;;;;;;;22.00;39.00;;;;;;8361728;28;19932;-43
2023/05/02 21:10:56;;;;;;;;;;;22.10;39.10;;;;;;8362027;28;19956;-43
2023/05/02 21:14:56;;;;;;;;;;;22.00;39.00;;;;;;8361996;28;20012;-43
2023/05/02 21:18:57;;;;;;;;;;;22.00;39.00;;;;;;8361759;28;19924;-43
2023/05/02 21:22:58;;;;;;;;;;;22.00;39.00;;;;;;8361894;28;20070;-43
2023/05/02 21:26:58;;;;;;;;;;;22.00;39.10;;;;;;8361911;28;19921;-43
2023/05/02 21:31:00;;;;;;;;;;;22.00;39.00;;;;;;8368160;28;20325;-43
2023/05/02 21:35:00;;;;;;;;;;;21.90;39.00;;;;;;8368355;28;19970;-43
2023/05/02 21:39:01;;;;;;;;;;;21.90;39.00;;;;;;8368434;28;20336;-43
2023/05/02 21:43:01;;;;;;;;;;;21.90;39.00;;;;;;8367943;28;19940;-43
2023/05/02 21:47:01;;;;;;;;;;;21.90;38.90;;;;;;8368182;28;20408;-44
2023/05/02 21:51:09;;;;;;;;;;;21.90;39.00;;;;;;8367902;28;19920;-43
2023/05/02 21:55:10;;;;;;;;;;;21.90;39.00;;;;;;8367091;28;19917;-43
2023/05/02 21:59:10;;;;;;;;;;;21.90;39.00;;;;;;8367883;28;20011;-42
2023/05/02 22:03:10;;;;;;;;;;;21.80;39.00;;;;;;8366656;28;20296;-43
2023/05/02 22:07:11;;;;;;;;;;;21.80;38.90;;;;;;8367046;28;19932;-44
2023/05/02 22:11:11;;;;;;;;;;;21.80;38.90;;;;;;8350799;28;19913;-42
2023/05/02 22:15:12;;;;;;;;;;;21.80;39.00;;;;;;8367251;28;20373;-43
2023/05/02 22:19:16;;;;;;;;;;;21.80;39.00;;;;;;8366897;28;19917;-43
2023/05/02 22:23:17;;;;;;;;;;;21.80;39.00;;;;;;8366804;28;19916;-43
2023/05/02 22:27:17;;;;;;;;;;;21.80;38.90;;;;;;8366789;28;19952;-43
2023/05/02 22:31:18;;;;;;;;;;;21.80;39.00;;;;;;8366296;28;20381;-44
2023/05/02 22:35:18;;;;;;;;;;;21.80;39.00;;;;;;8366468;28;20015;-44
2023/05/02 22:39:19;;;;;;;;;;;21.80;39.00;;;;;;8366356;28;19917;-44
2023/05/02 22:43:19;;;;;;;;;;;21.70;38.90;;;;;;8365836;28;19952;-43
2023/05/02 22:47:20;;;;;;;;;;;21.70;38.90;;;;;;8366014;28;20309;-43
2023/05/02 22:51:21;;;;;;;;;;;21.70;38.90;;;;;;8366065;28;19917;-43
2023/05/02 22:55:22;;;;;;;;;;;21.70;39.00;;;;;;8365970;28;19932;-43
2023/05/02 22:59:22;;;;;;;;;;;21.70;38.90;;;;;;8366224;28;20310;-45
2023/05/02 23:03:23;;;;;;;;;;;21.60;38.90;;;;;;8365314;28;19928;-43
2023/05/02 23:07:23;;;;;;;;;;;21.70;39.00;;;;;;8365595;28;20031;-44
2023/05/02 23:11:24;;;;;;;;;;;21.70;38.90;;;;;;8365342;28;19940;-44
2023/05/02 23:15:25;;;;;;;;;;;21.60;38.90;;;;;;8364896;28;19917;-44
2023/05/02 23:19:25;;;;;;;;;;;21.60;38.90;;;;;;8365512;28;20442;-44
2023/05/02 23:23:26;;;;;;;;;;;21.60;38.90;;;;;;8365126;28;19916;-44